Time;durP1;ratioP1;P1;durP2;ratioP2;P2;SDS_P1;SDS_P2;PMS_P1;PMS_P2;Temp;Humidity;BMP_temperature;BMP_pressure;BME280_temperature;BME280_humidity;BME280_pressure;Samples;Min_cycle;Max_cycle;Signal;HPM_P1;HPM_P2
2022/09/19 00:01:15;0.00;0.00;0.62;0.00;0.00;0.62;2.07;1.53;;;26.10;28.70;;;;;;2245346;61;20393;-65
2022/09/19 00:04:04;0.00;0.00;0.62;0.00;0.00;0.62;1.90;1.27;;;26.10;28.80;;;;;;2245373;61;20459;-64
2022/09/19 00:06:51;0.00;0.00;0.62;0.00;0.00;0.62;1.97;1.10;;;26.10;28.80;;;;;;2245568;61;20362;-64
2022/09/19 00:09:36;0.00;0.00;0.62;0.00;0.00;0.62;1.97;1.23;;;26.10;28.80;;;;;;2245510;61;20576;-63
2022/09/19 00:12:21;0.00;0.00;0.62;0.00;0.00;0.62;2.37;1.73;;;26.10;28.70;;;;;;2245880;61;20393;-64
2022/09/19 00:15:08;0.00;0.00;0.62;0.00;0.00;0.62;1.80;1.20;;;26.10;28.80;;;;;;2245361;61;20358;-64
2022/09/19 00:17:52;0.00;0.00;0.62;0.00;0.00;0.62;2.03;1.30;;;26.10;28.80;;;;;;2245570;61;20441;-65
2022/09/19 00:20:40;0.00;0.00;0.62;0.00;0.00;0.62;2.07;1.40;;;26.10;28.80;;;;;;2245237;61;20366;-64
2022/09/19 00:26:29;0.00;0.00;0.62;0.00;0.00;0.62;2.10;1.27;;;26.10;28.80;;;;;;2245767;61;20397;-64
2022/09/19 00:29:16;0.00;0.00;0.62;0.00;0.00;0.62;2.00;1.40;;;26.10;28.80;;;;;;2245315;61;20360;-64
2022/09/19 00:32:02;0.00;0.00;0.62;0.00;0.00;0.62;1.70;1.20;;;26.10;28.80;;;;;;2244850;61;20425;-64
2022/09/19 00:34:49;0.00;0.00;0.62;0.00;0.00;0.62;2.17;1.30;;;26.10;28.80;;;;;;2245593;61;20725;-64
2022/09/19 00:37:35;0.00;0.00;0.62;0.00;0.00;0.62;1.90;1.17;;;26.10;28.80;;;;;;2245380;61;20357;-64
2022/09/19 00:40:21;0.00;0.00;0.62;0.00;0.00;0.62;1.50;1.10;;;26.10;28.80;;;;;;2245595;61;20374;-64
2022/09/19 00:43:08;0.00;0.00;0.62;0.00;0.00;0.62;1.90;1.20;;;26.10;28.80;;;;;;2245468;61;20374;-64
2022/09/19 00:45:53;0.00;0.00;0.62;0.00;0.00;0.62;1.90;1.20;;;26.10;28.80;;;;;;2245320;61;20594;-64
2022/09/19 00:48:41;0.00;0.00;0.62;0.00;0.00;0.62;1.70;1.00;;;26.10;28.80;;;;;;2245456;61;20394;-64
2022/09/19 00:51:31;0.00;0.00;0.62;0.00;0.00;0.62;1.73;1.20;;;26.10;28.80;;;;;;2245190;61;20427;-64
2022/09/19 00:54:21;0.00;0.00;0.62;0.00;0.00;0.62;2.10;1.10;;;26.10;28.80;;;;;;2244723;61;20405;-65
2022/09/19 00:57:08;0.00;0.00;0.62;0.00;0.00;0.62;2.03;1.40;;;26.10;28.80;;;;;;2245564;61;20362;-65
2022/09/19 00:59:53;0.00;0.00;0.62;0.00;0.00;0.62;1.93;1.07;;;26.10;28.70;;;;;;2244876;61;20357;-65
2022/09/19 01:02:38;0.00;0.00;0.62;0.00;0.00;0.62;2.73;1.20;;;26.00;28.70;;;;;;2244916;61;20457;-65
2022/09/19 01:05:33;0.00;0.00;0.62;0.00;0.00;0.62;1.83;1.10;;;26.10;28.70;;;;;;2245370;61;20433;-65
2022/09/19 01:08:43;0.00;0.00;0.62;0.00;0.00;0.62;2.90;1.20;;;26.10;28.70;;;;;;2245196;61;20421;-64
2022/09/19 01:11:50;0.00;0.00;0.62;0.00;0.00;0.62;1.77;0.90;;;26.00;28.60;;;;;;2245679;61;20385;-64
2022/09/19 01:15:09;0.00;0.00;0.62;0.00;0.00;0.62;1.80;1.00;;;26.00;28.70;;;;;;2245169;61;20369;-65
2022/09/19 01:17:57;0.00;0.00;0.62;0.00;0.00;0.62;1.53;0.90;;;26.00;28.60;;;;;;2245455;61;20405;-64
2022/09/19 01:24:56;0.00;0.00;0.62;0.00;0.00;0.62;2.13;1.10;;;25.90;28.60;;;;;;2245249;61;20413;-64
2022/09/19 01:28:20;0.00;0.00;0.62;0.00;0.00;0.62;1.90;1.00;;;25.90;28.60;;;;;;2245439;61;20717;-64
2022/09/19 01:31:20;0.00;0.00;0.62;0.00;0.00;0.62;1.47;0.83;;;25.90;28.60;;;;;;2232403;61;20772;-65
2022/09/19 01:34:12;0.00;0.00;0.62;0.00;0.00;0.62;1.87;1.03;;;25.90;28.60;;;;;;2247566;61;20385;-66
2022/09/19 01:37:08;0.00;0.00;0.62;0.00;0.00;0.62;2.00;1.30;;;25.80;28.50;;;;;;2244820;61;20438;-65
2022/09/19 01:39:56;0.00;0.00;0.62;0.00;0.00;0.62;1.40;0.80;;;25.80;28.50;;;;;;2244928;61;20378;-63
2022/09/19 01:42:55;0.00;0.00;0.62;0.00;0.00;0.62;2.23;1.10;;;25.80;28.60;;;;;;2247607;61;20458;-65
2022/09/19 01:45:44;0.00;0.00;0.62;0.00;0.00;0.62;1.50;0.90;;;25.80;28.60;;;;;;2244965;61;20372;-63
2022/09/19 01:48:46;0.00;0.00;0.62;0.00;0.00;0.62;2.60;1.00;;;25.80;28.60;;;;;;2248103;61;20374;-66
2022/09/19 01:51:36;0.00;0.00;0.62;0.00;0.00;0.62;1.43;0.70;;;25.80;28.60;;;;;;2247333;61;20717;-66
2022/09/19 01:54:35;0.00;0.00;0.62;0.00;0.00;0.62;1.57;0.77;;;25.70;28.50;;;;;;2245227;61;20366;-65
2022/09/19 01:57:43;0.00;0.00;0.62;0.00;0.00;0.62;1.70;0.90;;;25.70;28.50;;;;;;2247745;61;20365;-66
2022/09/19 02:00:28;0.00;0.00;0.62;0.00;0.00;0.62;1.80;0.80;;;25.70;28.50;;;;;;2247728;61;20385;-65
2022/09/19 02:03:22;0.00;0.00;0.62;0.00;0.00;0.62;2.80;0.93;;;25.70;28.50;;;;;;2247993;61;20777;-66
2022/09/19 02:06:19;0.00;0.00;0.62;0.00;0.00;0.62;1.63;0.70;;;25.70;28.50;;;;;;2244631;61;20417;-65
2022/09/19 02:09:14;0.00;0.00;0.62;0.00;0.00;0.62;1.60;0.80;;;25.70;28.50;;;;;;2245298;61;20437;-65
2022/09/19 02:12:07;0.00;0.00;0.62;0.00;0.00;0.62;1.67;0.80;;;25.70;28.50;;;;;;2245292;61;20385;-65
2022/09/19 02:14:55;0.00;0.00;0.62;0.00;0.00;0.62;1.77;0.80;;;25.60;28.50;;;;;;2244712;61;20438;-65
2022/09/19 02:17:53;0.00;0.00;0.62;0.00;0.00;0.62;1.87;0.80;;;25.60;28.50;;;;;;2245090;61;20390;-68
2022/09/19 02:20:43;0.00;0.00;0.62;0.00;0.00;0.62;1.73;0.80;;;25.60;28.50;;;;;;2245190;61;20665;-67
2022/09/19 02:23:33;0.00;0.00;0.62;0.00;0.00;0.62;2.00;0.87;;;25.60;28.50;;;;;;2242296;61;20409;-67
2022/09/19 02:26:21;0.00;0.00;0.62;0.00;0.00;0.62;1.33;0.70;;;25.60;28.50;;;;;;2245534;61;20582;-65
2022/09/19 02:29:13;0.00;0.00;0.62;0.00;0.00;0.62;1.50;0.80;;;25.50;28.40;;;;;;2245385;61;20393;-66
2022/09/19 02:31:57;0.00;0.00;0.62;0.00;0.00;0.62;1.53;0.80;;;25.50;28.50;;;;;;2245825;61;20456;-65
2022/09/19 02:34:43;0.00;0.00;0.62;0.00;0.00;0.62;1.90;0.70;;;25.50;28.50;;;;;;2242903;61;20365;-66
2022/09/19 02:37:39;0.00;0.00;0.62;0.00;0.00;0.62;1.90;0.90;;;25.50;28.50;;;;;;2245668;61;20401;-65
2022/09/19 02:40:32;0.00;0.00;0.62;0.00;0.00;0.62;1.70;0.87;;;25.50;28.50;;;;;;2245988;61;20373;-65
2022/09/19 02:43:29;0.00;0.00;0.62;0.00;0.00;0.62;2.20;0.90;;;25.40;28.40;;;;;;2245292;61;20401;-66
2022/09/19 02:46:20;0.00;0.00;0.62;0.00;0.00;0.62;1.70;0.80;;;25.40;28.50;;;;;;2245234;61;20397;-65
2022/09/19 02:49:09;0.00;0.00;0.62;0.00;0.00;0.62;1.57;0.70;;;25.40;28.50;;;;;;2245942;61;20378;-65
2022/09/19 02:51:58;0.00;0.00;0.62;0.00;0.00;0.62;1.63;0.83;;;25.40;28.50;;;;;;2245603;61;20386;-65
2022/09/19 02:54:49;0.00;0.00;0.62;0.00;0.00;0.62;1.80;1.10;;;25.40;29.00;;;;;;2245814;61;20360;-65
2022/09/19 02:57:36;0.00;0.00;0.62;0.00;0.00;0.62;1.60;0.80;;;25.40;28.50;;;;;;2245088;61;20369;-64
2022/09/19 03:00:25;0.00;0.00;0.62;0.00;0.00;0.62;1.47;0.90;;;25.40;28.50;;;;;;2245779;61;20361;-64
2022/09/19 03:06:28;0.00;0.00;0.62;0.00;0.00;0.62;2.80;0.90;;;25.30;28.50;;;;;;2245152;61;20361;-66
2022/09/19 03:09:19;0.00;0.00;0.62;0.00;0.00;0.62;1.80;0.90;;;25.30;29.00;;;;;;2245298;61;20429;-66
2022/09/19 03:12:18;0.00;0.00;0.62;0.00;0.00;0.62;1.60;0.80;;;25.30;28.50;;;;;;2245506;61;20396;-66
2022/09/19 03:15:05;0.00;0.00;0.62;0.00;0.00;0.62;1.40;0.70;;;25.30;28.50;;;;;;2245367;61;20438;-64
2022/09/19 03:17:51;0.00;0.00;0.62;0.00;0.00;0.62;1.53;0.70;;;25.20;28.50;;;;;;2245462;61;20369;-66
2022/09/19 03:20:45;0.00;0.00;0.62;0.00;0.00;0.62;1.83;0.90;;;25.20;28.50;;;;;;2245188;61;20442;-66
2022/09/19 03:23:37;0.00;0.00;0.62;0.00;0.00;0.62;2.17;0.97;;;25.20;28.50;;;;;;2245281;61;20385;-64
2022/09/19 03:26:26;0.00;0.00;0.62;0.00;0.00;0.62;2.67;1.00;;;25.20;28.50;;;;;;2245392;61;20381;-66
2022/09/19 03:29:13;0.00;0.00;0.62;0.00;0.00;0.62;2.17;0.80;;;25.20;28.50;;;;;;2245468;61;20385;-65
2022/09/19 03:32:11;0.00;0.00;0.62;0.00;0.00;0.62;1.40;0.70;;;25.20;28.50;;;;;;2245423;61;20469;-65
2022/09/19 03:34:56;0.00;0.00;0.62;0.00;0.00;0.62;1.60;0.73;;;25.20;28.50;;;;;;2245083;61;20366;-65
2022/09/19 03:37:43;0.00;0.00;0.62;0.00;0.00;0.62;1.87;0.83;;;25.10;28.50;;;;;;2245362;61;20787;-65
2022/09/19 03:40:28;0.00;0.00;0.62;0.00;0.00;0.62;2.83;0.97;;;25.10;28.50;;;;;;2245282;61;20381;-65
2022/09/19 03:43:13;0.00;0.00;0.62;0.00;0.00;0.62;1.80;0.90;;;25.10;28.50;;;;;;2244942;61;20397;-65
2022/09/19 03:45:59;0.00;0.00;0.62;0.00;0.00;0.62;1.40;0.70;;;25.10;28.50;;;;;;2245160;61;20474;-64
2022/09/19 03:48:46;0.00;0.00;0.62;0.00;0.00;0.62;1.40;0.80;;;25.10;28.50;;;;;;2245044;61;20369;-65
2022/09/19 03:51:33;0.00;0.00;0.62;0.00;0.00;0.62;2.33;0.73;;;25.10;28.50;;;;;;2245297;61;20377;-65
2022/09/19 03:54:21;0.00;0.00;0.62;0.00;0.00;0.62;2.43;0.90;;;25.10;28.50;;;;;;2245938;61;20413;-65
2022/09/19 03:57:06;0.00;0.00;0.62;0.00;0.00;0.62;2.23;0.70;;;25.10;28.50;;;;;;2245439;61;20365;-64
2022/09/19 03:59:52;0.00;0.00;0.62;0.00;0.00;0.62;2.07;1.10;;;25.10;28.50;;;;;;2245231;61;20365;-65
2022/09/19 04:02:39;0.00;0.00;0.62;0.00;0.00;0.62;1.40;0.80;;;25.10;28.60;;;;;;2245200;61;20429;-65
2022/09/19 04:05:25;0.00;0.00;0.62;0.00;0.00;0.62;1.53;0.83;;;25.00;28.50;;;;;;2245029;61;20369;-66
2022/09/19 04:08:10;0.00;0.00;0.62;0.00;0.00;0.62;1.60;0.70;;;25.10;29.10;;;;;;2245409;61;20369;-65
2022/09/19 04:10:55;0.00;0.00;0.62;0.00;0.00;0.62;1.50;0.73;;;25.00;29.00;;;;;;2245207;61;20397;-66
2022/09/19 04:13:40;0.00;0.00;0.62;0.00;0.00;0.62;1.40;0.70;;;25.00;28.60;;;;;;2245316;61;20434;-63
2022/09/19 04:16:33;0.00;0.00;0.62;0.00;0.00;0.62;1.40;0.80;;;25.00;28.50;;;;;;2245629;61;20361;-64
2022/09/19 04:19:19;0.00;0.00;0.62;0.00;0.00;0.62;1.60;0.70;;;25.00;28.50;;;;;;2245066;61;20405;-65
2022/09/19 04:22:09;0.00;0.00;0.62;0.00;0.00;0.62;1.70;1.03;;;25.00;28.50;;;;;;2244748;61;20369;-65
2022/09/19 04:24:56;0.00;0.00;0.62;0.00;0.00;0.62;3.53;0.97;;;25.00;28.60;;;;;;2245283;61;20705;-65
2022/09/19 04:28:03;0.00;0.00;0.62;0.00;0.00;0.62;1.80;0.80;;;25.00;28.50;;;;;;2244884;61;20365;-65
2022/09/19 04:30:50;0.00;0.00;0.62;0.00;0.00;0.62;3.43;0.87;;;25.00;28.50;;;;;;2245136;61;20369;-65
2022/09/19 04:33:36;0.00;0.00;0.62;0.00;0.00;0.62;1.70;1.10;;;24.90;28.50;;;;;;2245030;61;20408;-65
2022/09/19 04:36:23;0.00;0.00;0.62;0.00;0.00;0.62;1.90;1.00;;;24.90;28.50;;;;;;2245025;61;20365;-65
2022/09/19 04:39:10;0.00;0.00;0.62;0.00;0.00;0.62;1.40;0.70;;;24.90;28.50;;;;;;2245292;61;20443;-65
2022/09/19 04:41:59;0.00;0.00;0.62;0.00;0.00;0.62;1.67;0.73;;;24.90;28.50;;;;;;2244836;61;20393;-65
2022/09/19 04:44:45;0.00;0.00;0.62;0.00;0.00;0.62;2.20;0.80;;;24.90;28.50;;;;;;2245099;61;20616;-65
2022/09/19 04:47:43;0.00;0.00;0.62;0.00;0.00;0.62;1.30;0.63;;;24.90;28.50;;;;;;2245598;61;20365;-65
2022/09/19 04:50:28;0.00;0.00;0.62;0.00;0.00;0.62;1.93;0.97;;;24.90;28.50;;;;;;2245145;61;20469;-65
2022/09/19 04:53:23;0.00;0.00;0.62;0.00;0.00;0.62;2.80;1.10;;;24.90;28.50;;;;;;2245072;61;20429;-65
2022/09/19 04:56:10;0.00;0.00;0.62;0.00;0.00;0.62;1.67;0.80;;;24.90;28.50;;;;;;2244916;61;20369;-64
2022/09/19 04:58:59;0.00;0.00;0.62;0.00;0.00;0.62;2.63;0.97;;;24.90;28.60;;;;;;2245046;61;20357;-66
2022/09/19 05:01:44;0.00;0.00;0.62;0.00;0.00;0.62;2.23;1.20;;;24.80;28.50;;;;;;2245026;61;20405;-66
2022/09/19 05:04:29;0.00;0.00;0.62;0.00;0.00;0.62;1.80;1.00;;;24.80;28.50;;;;;;2247425;61;20362;-66
2022/09/19 05:07:14;0.00;0.00;0.62;0.00;0.00;0.62;3.40;0.80;;;24.80;28.50;;;;;;2247771;61;20593;-65
2022/09/19 05:10:01;0.00;0.00;0.62;0.00;0.00;0.62;2.20;1.10;;;24.80;28.50;;;;;;2247699;61;20389;-66
2022/09/19 05:12:52;0.00;0.00;0.62;0.00;0.00;0.62;2.57;0.90;;;24.80;28.50;;;;;;2247691;61;20397;-66
2022/09/19 05:15:41;0.00;0.00;0.62;0.00;0.00;0.62;1.60;0.97;;;24.80;28.50;;;;;;2245448;61;20374;-66
2022/09/19 05:18:28;0.00;0.00;0.62;0.00;0.00;0.62;2.40;0.97;;;24.70;28.50;;;;;;2244798;61;20372;-65
2022/09/19 05:21:15;0.00;0.00;0.62;0.00;0.00;0.62;2.47;1.33;;;24.70;28.40;;;;;;2247651;61;20365;-65
2022/09/19 05:24:00;0.00;0.00;0.62;0.00;0.00;0.62;2.70;1.17;;;24.70;28.50;;;;;;2247674;61;20385;-66
2022/09/19 05:26:47;0.00;0.00;0.62;0.00;0.00;0.62;3.10;1.00;;;24.70;29.00;;;;;;2245111;61;20738;-71
2022/09/19 05:29:39;0.00;0.00;0.62;0.00;0.00;0.62;3.07;1.20;;;24.60;28.50;;;;;;2244825;61;20369;-71
2022/09/19 05:32:24;0.00;0.00;0.62;0.00;0.00;0.62;1.70;0.90;;;24.60;28.60;;;;;;2244676;61;20393;-68
2022/09/19 05:35:30;0.00;0.00;0.62;0.00;0.00;0.62;2.20;1.17;;;24.50;28.50;;;;;;2245235;61;20426;-69
2022/09/19 05:38:31;0.00;0.00;0.62;0.00;0.00;0.62;2.30;0.90;;;24.50;28.60;;;;;;2247860;61;20471;-71
2022/09/19 05:41:22;0.00;0.00;0.62;0.00;0.00;0.62;2.63;1.17;;;24.50;28.70;;;;;;2245102;61;20378;-70
2022/09/19 05:44:16;0.00;0.00;0.62;0.00;0.00;0.62;2.17;1.10;;;24.40;29.20;;;;;;2247593;61;20385;-64
2022/09/19 05:47:05;0.00;0.00;0.62;0.00;0.00;0.62;2.23;1.00;;;24.40;28.70;;;;;;2247536;61;20597;-68
2022/09/19 05:49:50;0.00;0.00;0.62;0.00;0.00;0.62;2.70;1.30;;;24.40;28.80;;;;;;2247906;61;20434;-71
2022/09/19 05:55:42;0.00;0.00;0.62;0.00;0.00;0.62;2.50;1.30;;;24.30;28.80;;;;;;2247759;61;20369;-70
2022/09/19 05:58:45;0.00;0.00;0.62;0.00;0.00;0.62;3.10;1.23;;;24.30;28.90;;;;;;2245353;61;20814;-64
2022/09/19 06:01:32;0.00;0.00;0.62;0.00;0.00;0.62;2.37;1.30;;;24.30;29.00;;;;;;2247707;61;20599;-68
2022/09/19 06:04:17;0.00;0.00;0.62;0.00;0.00;0.62;3.97;1.33;;;24.30;29.00;;;;;;2244779;61;20381;-69
2022/09/19 06:07:04;0.00;0.00;0.62;0.00;0.00;0.62;2.33;1.10;;;24.20;28.90;;;;;;2245172;61;20380;-66
2022/09/19 06:09:52;0.00;0.00;0.62;0.00;0.00;0.62;3.57;1.30;;;24.30;29.00;;;;;;2245570;61;20365;-67
2022/09/19 06:12:37;0.00;0.00;0.62;0.00;0.00;0.62;3.10;1.30;;;24.20;29.00;;;;;;2245409;61;20753;-67
2022/09/19 06:15:23;0.00;0.00;0.62;0.00;0.00;0.62;2.10;1.40;;;24.20;29.00;;;;;;2245141;61;20453;-67
2022/09/19 06:18:11;0.00;0.00;0.62;0.00;0.00;0.62;2.47;1.20;;;24.20;29.00;;;;;;2245433;61;20397;-66
2022/09/19 06:20:58;0.00;0.00;0.62;0.00;0.00;0.62;2.07;1.00;;;24.20;29.10;;;;;;2245367;61;20713;-69
2022/09/19 06:23:49;0.00;0.00;0.62;0.00;0.00;0.62;2.90;1.20;;;24.20;29.10;;;;;;2245575;61;20734;-68
2022/09/19 06:26:34;0.00;0.00;0.62;0.00;0.00;0.62;3.37;1.93;;;24.20;29.10;;;;;;2246041;61;20369;-71
2022/09/19 06:29:20;0.00;0.00;0.62;0.00;0.00;0.62;2.60;1.00;;;24.20;29.10;;;;;;2245454;61;20698;-71
2022/09/19 06:32:25;0.00;0.00;0.62;0.00;0.00;0.62;2.50;1.23;;;24.20;29.20;;;;;;2245683;61;20392;-68
2022/09/19 06:35:35;0.00;0.00;0.62;0.00;0.00;0.62;2.73;1.30;;;24.20;29.20;;;;;;2245303;61;20345;-70
2022/09/19 06:38:22;0.00;0.00;0.62;0.00;0.00;0.62;2.30;1.27;;;24.20;29.20;;;;;;2245713;61;20713;-68
2022/09/19 06:41:08;0.00;0.00;0.62;0.00;0.00;0.62;3.10;1.17;;;24.20;29.20;;;;;;2245335;61;20380;-65
2022/09/19 06:44:30;0.00;0.00;0.62;0.00;0.00;0.62;1.70;0.87;;;24.20;29.20;;;;;;2245375;61;20369;-68
2022/09/19 06:47:31;0.00;0.00;0.62;0.00;0.00;0.62;2.90;1.23;;;24.20;29.20;;;;;;2245344;61;20401;-66
2022/09/19 06:50:55;0.00;0.00;0.62;0.00;0.00;0.62;4.80;1.17;;;24.30;29.30;;;;;;2244806;61;20381;-66
2022/09/19 06:53:41;0.00;0.00;0.62;0.00;0.00;0.62;1.63;0.90;;;24.20;29.30;;;;;;2245108;61;20405;-68
2022/09/19 06:56:27;0.00;0.00;0.62;0.00;0.00;0.62;2.50;1.00;;;24.20;29.30;;;;;;2245207;61;20722;-68
2022/09/19 06:59:13;0.00;0.00;0.62;0.00;0.00;0.62;3.13;1.20;;;24.20;29.30;;;;;;2246335;61;20638;-70
2022/09/19 07:01:59;0.00;0.00;0.62;0.00;0.00;0.62;3.83;1.43;;;24.20;29.40;;;;;;2245180;61;20410;-67
2022/09/19 07:04:44;0.00;0.00;0.62;0.00;0.00;0.62;4.20;1.70;;;24.30;29.60;;;;;;2245554;61;20485;-67
2022/09/19 07:07:35;0.00;0.00;0.62;0.00;0.00;0.62;3.17;1.30;;;24.30;29.60;;;;;;2245583;61;20393;-64
2022/09/19 07:10:20;0.00;0.00;0.62;0.00;0.00;0.62;2.63;1.30;;;24.20;29.50;;;;;;2245266;61;20818;-68
2022/09/19 07:13:06;0.00;0.00;0.62;0.00;0.00;0.62;2.10;1.00;;;24.20;29.50;;;;;;2245474;61;20458;-67
2022/09/19 07:15:52;0.00;0.00;0.62;0.00;0.00;0.62;2.97;1.50;;;24.20;29.50;;;;;;2245408;61;20725;-65
2022/09/19 07:18:38;0.00;0.00;0.62;0.00;0.00;0.62;4.97;1.50;;;24.30;29.60;;;;;;2244427;56;20377;-65
2022/09/19 07:21:43;0.00;0.00;0.62;0.00;0.00;0.62;3.57;1.40;;;24.20;29.50;;;;;;2247405;61;20386;-70
2022/09/19 07:24:34;0.00;0.00;0.62;0.00;0.00;0.62;4.37;1.20;;;24.30;29.60;;;;;;2242202;62;20452;-67
2022/09/19 07:27:46;0.00;0.00;0.62;0.00;0.00;0.62;2.57;1.37;;;24.30;29.60;;;;;;2243713;62;20382;-71
2022/09/19 07:30:34;0.00;0.00;0.62;0.00;0.00;0.62;4.60;1.40;;;24.30;29.60;;;;;;2243980;62;20378;-60
2022/09/19 07:33:21;0.00;0.00;0.62;0.00;0.00;0.62;6.67;1.70;;;24.30;29.60;;;;;;2242629;62;20434;-67
2022/09/19 07:36:06;0.00;0.00;0.62;0.00;0.00;0.62;3.10;1.40;;;24.30;29.60;;;;;;2243246;62;20641;-69
2022/09/19 07:38:53;0.00;0.00;0.62;0.00;0.00;0.62;3.30;1.30;;;24.30;29.60;;;;;;2242136;62;20645;-68
2022/09/19 07:42:03;0.00;0.00;0.62;0.00;0.00;0.62;2.57;1.50;;;24.30;29.60;;;;;;2242855;62;20363;-67
2022/09/19 07:45:09;0.00;0.00;0.62;0.00;0.00;0.62;4.80;1.80;;;24.30;29.60;;;;;;2242657;62;20607;-67
2022/09/19 07:48:07;0.00;0.00;0.62;0.00;0.00;0.62;3.10;1.50;;;24.30;29.60;;;;;;2241951;62;20402;-64
2022/09/19 07:51:13;0.00;0.00;0.62;0.00;0.00;0.62;4.50;1.80;;;24.30;29.70;;;;;;2242117;62;20383;-65
2022/09/19 07:53:58;0.00;0.00;0.62;0.00;0.00;0.62;3.33;1.47;;;24.30;29.70;;;;;;2241127;62;20394;-62
2022/09/19 07:56:44;0.00;0.00;0.62;0.00;0.00;0.62;3.23;1.77;;;24.30;29.60;;;;;;2241810;62;20685;-62
2022/09/19 07:59:32;0.00;0.00;0.62;0.00;0.00;0.62;3.80;1.73;;;24.30;29.60;;;;;;2241474;62;20366;-62
2022/09/19 08:02:19;0.00;0.00;0.62;0.00;0.00;0.62;2.90;1.27;;;24.30;29.60;;;;;;2239117;62;20406;-64
2022/09/19 08:05:05;0.00;0.00;0.62;0.00;0.00;0.62;4.13;1.33;;;24.30;29.60;;;;;;2237456;62;20594;-62
2022/09/19 08:07:52;0.00;0.00;0.62;0.00;0.00;0.62;3.30;1.40;;;24.30;29.60;;;;;;2237404;62;20387;-65
2022/09/19 08:10:39;0.00;0.00;0.62;0.00;0.00;0.62;3.23;1.30;;;24.40;29.70;;;;;;2236921;62;20427;-64
2022/09/19 08:13:24;0.00;0.00;0.62;0.00;0.00;0.62;2.00;1.20;;;24.40;29.70;;;;;;2237667;62;20478;-63
2022/09/19 08:16:11;0.00;0.00;0.62;0.00;0.00;0.62;2.60;1.17;;;24.50;29.70;;;;;;2237067;62;20371;-65
2022/09/19 08:18:56;0.00;0.00;0.62;0.00;0.00;0.62;2.47;1.33;;;24.50;29.80;;;;;;2237148;62;20387;-62
2022/09/19 08:21:41;0.00;0.00;0.62;0.00;0.00;0.62;3.33;1.53;;;24.50;29.70;;;;;;2237712;62;20411;-65
2022/09/19 08:24:26;0.00;0.00;0.62;0.00;0.00;0.62;1.90;1.30;;;24.60;29.80;;;;;;2237220;62;20380;-62
2022/09/19 08:27:15;0.00;0.00;0.62;0.00;0.00;0.62;2.00;1.10;;;24.60;29.80;;;;;;2237087;62;20432;-66
2022/09/19 08:30:00;0.00;0.00;0.62;0.00;0.00;0.62;2.00;1.10;;;24.60;29.80;;;;;;2236964;62;20362;-61
2022/09/19 08:32:49;0.00;0.00;0.62;0.00;0.00;0.62;2.10;1.20;;;24.60;29.80;;;;;;2236772;62;20387;-65
2022/09/19 08:35:37;0.00;0.00;0.62;0.00;0.00;0.62;3.60;1.33;;;24.60;30.30;;;;;;2237438;62;20367;-68
2022/09/19 08:38:24;0.00;0.00;0.62;0.00;0.00;0.62;3.20;1.33;;;24.70;29.90;;;;;;2234514;62;20404;-66
2022/09/19 08:41:31;0.00;0.00;0.62;0.00;0.00;0.62;2.60;1.40;;;24.70;30.40;;;;;;2237041;62;20364;-73
2022/09/19 08:44:27;0.00;0.00;0.62;0.00;0.00;0.62;2.40;1.20;;;24.70;29.90;;;;;;2237220;62;20436;-64
2022/09/19 08:47:18;0.00;0.00;0.62;0.00;0.00;0.62;2.47;1.47;;;24.70;29.90;;;;;;2237309;62;20394;-62
2022/09/19 08:50:14;0.00;0.00;0.62;0.00;0.00;0.62;3.40;1.73;;;24.80;29.90;;;;;;2237537;62;20405;-67
2022/09/19 08:53:09;0.00;0.00;0.62;0.00;0.00;0.62;2.10;1.17;;;24.80;29.90;;;;;;2236995;62;20505;-65
2022/09/19 08:56:00;0.00;0.00;0.62;0.00;0.00;0.62;2.30;1.10;;;24.80;29.90;;;;;;2237035;62;20808;-64
2022/09/19 08:58:50;0.00;0.00;0.62;0.00;0.00;0.62;4.33;1.80;;;24.90;30.00;;;;;;2237165;62;20356;-64
2022/09/19 09:01:45;0.00;0.00;0.62;0.00;0.00;0.62;2.20;1.10;;;24.90;30.60;;;;;;2236943;62;20396;-61
2022/09/19 09:04:42;0.00;0.00;0.62;0.00;0.00;0.62;2.90;1.40;;;24.90;30.00;;;;;;2237647;62;20442;-67
2022/09/19 09:07:51;0.00;0.00;0.62;0.00;0.00;0.62;2.80;1.50;;;25.00;30.00;;;;;;2236841;62;20379;-64
2022/09/19 09:11:13;0.00;0.00;0.62;0.00;0.00;0.62;2.33;1.20;;;25.00;30.00;;;;;;2236761;62;20390;-64
2022/09/19 09:14:12;0.00;0.00;0.62;0.00;0.00;0.62;1.70;1.00;;;25.00;30.00;;;;;;2237202;62;20431;-65
2022/09/19 09:17:15;0.00;0.00;0.62;0.00;0.00;0.62;2.10;1.30;;;25.00;30.00;;;;;;2237247;62;20371;-69
2022/09/19 09:20:36;0.00;0.00;0.62;0.00;0.00;0.62;1.80;1.20;;;25.10;30.10;;;;;;2236879;62;20379;-68
2022/09/19 09:23:26;0.00;0.00;0.62;0.00;0.00;0.62;2.33;1.43;;;25.10;30.10;;;;;;2236839;62;20597;-70
2022/09/19 09:26:39;0.00;0.00;0.62;0.00;0.00;0.62;3.30;1.20;;;25.10;30.10;;;;;;2237378;62;20382;-69
2022/09/19 09:29:33;0.00;0.00;0.62;0.00;0.00;0.62;2.17;1.10;;;25.20;30.10;;;;;;2237022;62;20376;-69
2022/09/19 09:32:36;0.00;0.00;0.62;0.00;0.00;0.62;2.27;1.20;;;25.20;30.10;;;;;;2236735;62;20406;-61
2022/09/19 09:35:34;0.00;0.00;0.62;0.00;0.00;0.62;2.20;0.93;;;25.20;30.80;;;;;;2237160;62;20370;-62
2022/09/19 09:38:31;0.00;0.00;0.62;0.00;0.00;0.62;2.30;1.10;;;25.20;30.30;;;;;;2236904;62;20371;-65
2022/09/19 09:41:47;0.00;0.00;0.62;0.00;0.00;0.62;2.40;1.07;;;25.30;30.10;;;;;;2236746;62;20787;-63
2022/09/19 09:44:57;0.00;0.00;0.62;0.00;0.00;0.62;2.00;1.23;;;25.30;30.00;;;;;;2236753;62;20482;-65
2022/09/19 09:47:59;0.00;0.00;0.62;0.00;0.00;0.62;2.60;1.60;;;25.40;30.00;;;;;;2236427;62;20383;-66
2022/09/19 09:51:07;0.00;0.00;0.62;0.00;0.00;0.62;1.70;1.20;;;25.40;30.00;;;;;;2236356;62;20375;-66
2022/09/19 09:56:14;0.00;0.00;0.62;0.00;0.00;0.62;2.17;1.10;;;25.40;30.00;;;;;;2233458;62;20453;-63
2022/09/19 09:57:36;0.00;0.00;0.62;0.00;0.00;0.62;3.53;1.30;;;25.40;30.00;;;;;;2236622;62;20386;-65
2022/09/19 10:03:44;0.00;0.00;0.62;0.00;0.00;0.62;2.23;1.13;;;25.50;30.00;;;;;;2239915;62;20865;-66
2022/09/19 10:06:52;0.00;0.00;0.62;0.00;0.00;0.62;1.60;1.00;;;25.50;29.90;;;;;;2240562;62;20573;-69
2022/09/19 10:09:45;0.00;0.00;0.62;0.00;0.00;0.62;1.70;1.30;;;25.50;29.90;;;;;;2240800;62;20351;-67
2022/09/19 10:12:36;0.00;0.00;0.62;0.00;0.00;0.62;1.90;1.30;;;25.50;30.00;;;;;;2240943;62;20390;-68
2022/09/19 10:15:24;0.00;0.00;0.62;0.00;0.00;0.62;1.80;0.83;;;25.60;30.00;;;;;;2240757;62;20431;-67
2022/09/19 10:18:25;0.00;0.00;0.62;0.00;0.00;0.62;1.60;1.00;;;25.60;30.00;;;;;;2241059;62;20370;-63
2022/09/19 10:21:31;0.00;0.00;0.62;0.00;0.00;0.62;1.60;0.90;;;25.60;30.00;;;;;;2239498;62;20378;-66
2022/09/19 10:24:53;0.00;0.00;0.62;0.00;0.00;0.62;1.50;0.80;;;25.70;30.10;;;;;;2236704;62;20503;-68
2022/09/19 10:27:45;0.00;0.00;0.62;0.00;0.00;0.62;2.90;1.40;;;25.70;30.10;;;;;;2236851;62;20497;-66
2022/09/19 10:30:55;0.00;0.00;0.62;0.00;0.00;0.62;1.90;1.10;;;25.70;30.00;;;;;;2236741;62;20447;-66
2022/09/19 10:33:47;0.00;0.00;0.62;0.00;0.00;0.62;2.20;1.10;;;25.80;30.80;;;;;;2237140;62;20386;-64
2022/09/19 10:36:46;0.00;0.00;0.62;0.00;0.00;0.62;2.70;1.30;;;25.80;30.00;;;;;;2236730;62;20592;-66
2022/09/19 10:39:42;0.00;0.00;0.62;0.00;0.00;0.62;2.70;1.13;;;25.90;30.10;;;;;;2237123;62;20403;-64
2022/09/19 10:42:36;0.00;0.00;0.62;0.00;0.00;0.62;4.33;1.00;;;25.90;30.00;;;;;;2237182;62;20772;-67
2022/09/19 10:45:26;0.00;0.00;0.62;0.00;0.00;0.62;2.47;1.20;;;25.90;30.00;;;;;;2234313;62;20684;-65
2022/09/19 10:48:18;0.00;0.00;0.62;0.00;0.00;0.62;2.10;1.20;;;25.90;30.00;;;;;;2237382;62;20403;-70
2022/09/19 10:51:08;0.00;0.00;0.62;0.00;0.00;0.62;2.30;1.17;;;26.00;29.90;;;;;;2234131;62;20362;-66
2022/09/19 10:53:55;0.00;0.00;0.62;0.00;0.00;0.62;3.13;1.40;;;26.00;29.90;;;;;;2237477;62;20395;-67
2022/09/19 10:56:41;0.00;0.00;0.62;0.00;0.00;0.62;3.30;1.17;;;26.00;29.90;;;;;;2237817;62;20416;-68
2022/09/19 10:59:36;0.00;0.00;0.62;0.00;0.00;0.62;1.90;1.03;;;26.00;29.90;;;;;;2237254;62;20398;-71
2022/09/19 11:03:02;0.00;0.00;0.62;0.00;0.00;0.62;2.07;1.10;;;26.00;29.90;;;;;;2237834;62;20398;-68
2022/09/19 11:06:03;0.00;0.00;0.62;0.00;0.00;0.62;2.33;1.10;;;26.10;30.00;;;;;;2237396;62;20382;-67
2022/09/19 11:08:50;0.00;0.00;0.62;0.00;0.00;0.62;2.07;1.10;;;26.10;29.90;;;;;;2237428;62;20738;-66
2022/09/19 11:12:05;0.00;0.00;0.62;0.00;0.00;0.62;3.00;1.17;;;26.10;29.90;;;;;;2237517;62;20367;-66
2022/09/19 11:14:57;0.00;0.00;0.62;0.00;0.00;0.62;2.20;1.00;;;26.20;29.90;;;;;;2237341;62;20391;-67
2022/09/19 11:18:02;0.00;0.00;0.62;0.00;0.00;0.62;1.70;1.00;;;26.20;29.90;;;;;;2238003;62;20677;-65
2022/09/19 11:21:15;0.00;0.00;0.62;0.00;0.00;0.62;1.80;0.90;;;26.20;29.90;;;;;;2237374;62;20416;-68
2022/09/19 11:24:19;0.00;0.00;0.62;0.00;0.00;0.62;1.87;1.03;;;26.20;30.00;;;;;;2237382;62;20383;-64
2022/09/19 11:27:41;0.00;0.00;0.62;0.00;0.00;0.62;1.67;0.80;;;26.30;30.00;;;;;;2237644;62;20439;-63
2022/09/19 11:30:30;0.00;0.00;0.62;0.00;0.00;0.62;1.93;0.90;;;26.30;29.90;;;;;;2237245;62;20424;-67
2022/09/19 11:33:35;0.00;0.00;0.62;0.00;0.00;0.62;2.63;1.20;;;26.40;29.90;;;;;;2237688;62;20411;-67
2022/09/19 11:37:02;0.00;0.00;0.62;0.00;0.00;0.62;1.93;1.00;;;26.40;29.90;;;;;;2237373;62;20362;-65
2022/09/19 11:40:04;0.00;0.00;0.62;0.00;0.00;0.62;2.00;1.03;;;26.40;30.00;;;;;;2237455;62;20443;-65